sensor_id;sensor_type;location;lat;lon;timestamp;pressure;altitude;pressure_sealevel;temperature;humidity
17764;BME280;22245;52.832;13.816;2023-07-20T00:00:14;100856.97;;;15.96;79.01
17764;BME280;22245;52.832;13.816;2023-07-20T00:03:36;100851.59;;;15.96;78.83
17764;BME280;22245;52.832;13.816;2023-07-20T00:06:58;100850.75;;;15.96;78.86
17764;BME280;22245;52.832;13.816;2023-07-20T00:10:21;100849.91;;;15.95;78.80
17764;BME280;22245;52.832;13.816;2023-07-20T00:13:44;100851.59;;;15.96;79.19
17764;BME280;22245;52.832;13.816;2023-07-20T00:17:06;100849.25;;;15.93;79.12
17764;BME280;22245;52.832;13.816;2023-07-20T00:20:28;100853.94;;;15.91;79.91
17764;BME280;22245;52.832;13.816;2023-07-20T00:23:49;100856.06;;;15.87;79.75
17764;BME280;22245;52.832;13.816;2023-07-20T00:27:11;100857.91;;;15.87;80.01
17764;BME280;22245;52.832;13.816;2023-07-20T00:30:34;100859.91;;;15.85;79.76
17764;BME280;22245;52.832;13.816;2023-07-20T00:33:56;100861.59;;;15.86;79.69
17764;BME280;22245;52.832;13.816;2023-07-20T00:37:17;100853.84;;;15.83;79.62
17764;BME280;22245;52.832;13.816;2023-07-20T00:40:39;100868.13;;;15.83;79.60
17764;BME280;22245;52.832;13.816;2023-07-20T00:44:02;100869.97;;;15.83;80.24
17764;BME280;22245;52.832;13.816;2023-07-20T00:47:25;100864.78;;;15.81;79.63
17764;BME280;22245;52.832;13.816;2023-07-20T00:50:48;100866.09;;;15.77;80.21
17764;BME280;22245;52.832;13.816;2023-07-20T00:54:10;100858.88;;;15.77;80.47
17764;BME280;22245;52.832;13.816;2023-07-20T00:57:31;100859.22;;;15.74;80.95
17764;BME280;22245;52.832;13.816;2023-07-20T01:00:54;100852.16;;;15.73;80.89
17764;BME280;22245;52.832;13.816;2023-07-20T01:04:17;100850.47;;;15.72;81.08
17764;BME280;22245;52.832;13.816;2023-07-20T01:07:44;100855.16;;;15.70;81.19
17764;BME280;22245;52.832;13.816;2023-07-20T01:11:12;100861.53;;;15.69;81.14
17764;BME280;22245;52.832;13.816;2023-07-20T01:14:37;100863.69;;;15.66;81.50
17764;BME280;22245;52.832;13.816;2023-07-20T01:17:59;100856.81;;;15.63;81.54
17764;BME280;22245;52.832;13.816;2023-07-20T01:21:27;100854.28;;;15.61;81.90
17764;BME280;22245;52.832;13.816;2023-07-20T01:25:08;100857.16;;;15.60;82.07
17764;BME280;22245;52.832;13.816;2023-07-20T01:28:39;100854.63;;;15.58;82.07
17764;BME280;22245;52.832;13.816;2023-07-20T01:32:09;100854.13;;;15.55;81.65
17764;BME280;22245;52.832;13.816;2023-07-20T01:35:32;100854.13;;;15.55;82.26
17764;BME280;22245;52.832;13.816;2023-07-20T01:38:56;100853.91;;;15.48;82.72
17764;BME280;22245;52.832;13.816;2023-07-20T01:42:18;100855.06;;;15.45;83.16
17764;BME280;22245;52.832;13.816;2023-07-20T01:45:39;100858.59;;;15.46;84.18
17764;BME280;22245;52.832;13.816;2023-07-20T01:49:03;100858.41;;;15.47;83.39
17764;BME280;22245;52.832;13.816;2023-07-20T01:52:24;100854.72;;;15.48;83.63
17764;BME280;22245;52.832;13.816;2023-07-20T01:55:46;100849.88;;;15.44;83.99
17764;BME280;22245;52.832;13.816;2023-07-20T01:59:08;100841.50;;;15.47;82.87
17764;BME280;22245;52.832;13.816;2023-07-20T02:02:30;100843.31;;;15.46;83.23
17764;BME280;22245;52.832;13.816;2023-07-20T02:05:53;100845.50;;;15.43;84.20
17764;BME280;22245;52.832;13.816;2023-07-20T02:09:15;100844.47;;;15.36;85.23
17764;BME280;22245;52.832;13.816;2023-07-20T02:12:36;100845.28;;;15.36;85.63
17764;BME280;22245;52.832;13.816;2023-07-20T02:15:57;100862.94;;;15.39;85.56
17764;BME280;22245;52.832;13.816;2023-07-20T02:19:20;100855.91;;;15.46;85.55
17764;BME280;22245;52.832;13.816;2023-07-20T02:22:44;100863.78;;;15.47;85.85
17764;BME280;22245;52.832;13.816;2023-07-20T02:26:06;100865.13;;;15.52;85.44
17764;BME280;22245;52.832;13.816;2023-07-20T02:29:28;100872.50;;;15.49;85.70
17764;BME280;22245;52.832;13.816;2023-07-20T02:32:50;100870.34;;;15.45;85.73
17764;BME280;22245;52.832;13.816;2023-07-20T02:36:12;100880.53;;;15.41;86.73
17764;BME280;22245;52.832;13.816;2023-07-20T02:39:35;100873.66;;;15.39;86.98
17764;BME280;22245;52.832;13.816;2023-07-20T02:42:57;100879.50;;;15.34;87.54
17764;BME280;22245;52.832;13.816;2023-07-20T02:46:19;100875.94;;;15.33;87.76
17764;BME280;22245;52.832;13.816;2023-07-20T02:49:41;100872.31;;;15.34;86.46
17764;BME280;22245;52.832;13.816;2023-07-20T02:53:02;100873.25;;;15.33;87.66
17764;BME280;22245;52.832;13.816;2023-07-20T02:56:25;100869.44;;;15.36;88.08
17764;BME280;22245;52.832;13.816;2023-07-20T02:59:47;100873.81;;;15.37;88.46
17764;BME280;22245;52.832;13.816;2023-07-20T03:03:09;100876.81;;;15.34;88.62
17764;BME280;22245;52.832;13.816;2023-07-20T03:06:31;100868.22;;;15.30;89.42
17764;BME280;22245;52.832;13.816;2023-07-20T03:09:56;100879.50;;;15.34;89.01
17764;BME280;22245;52.832;13.816;2023-07-20T03:13:19;100874.13;;;15.34;89.34
17764;BME280;22245;52.832;13.816;2023-07-20T03:16:41;100886.53;;;15.35;89.15
17764;BME280;22245;52.832;13.816;2023-07-20T03:20:02;100889.06;;;15.37;90.03
17764;BME280;22245;52.832;13.816;2023-07-20T03:23:25;100887.56;;;15.42;89.76
17764;BME280;22245;52.832;13.816;2023-07-20T03:26:48;100878.53;;;15.43;89.82
17764;BME280;22245;52.832;13.816;2023-07-20T03:30:12;100886.25;;;15.46;89.54
17764;BME280;22245;52.832;13.816;2023-07-20T03:33:34;100886.25;;;15.46;90.01
17764;BME280;22245;52.832;13.816;2023-07-20T03:36:56;100890.69;;;15.56;90.28
17764;BME280;22245;52.832;13.816;2023-07-20T03:40:18;100893.06;;;15.59;89.45
17764;BME280;22245;52.832;13.816;2023-07-20T03:43:39;100900.13;;;15.68;89.48
17764;BME280;22245;52.832;13.816;2023-07-20T03:47:02;100890.53;;;15.66;89.86
17764;BME280;22245;52.832;13.816;2023-07-20T03:50:25;100900.50;;;15.73;89.64
17764;BME280;22245;52.832;13.816;2023-07-20T03:53:47;100906.38;;;15.77;90.55
17764;BME280;22245;52.832;13.816;2023-07-20T03:57:08;100908.22;;;15.76;90.99
17764;BME280;22245;52.832;13.816;2023-07-20T04:00:30;100916.59;;;15.73;91.21
17764;BME280;22245;52.832;13.816;2023-07-20T04:03:53;100901.63;;;15.71;91.90
17764;BME280;22245;52.832;13.816;2023-07-20T04:07:15;100912.75;;;15.76;91.30
17764;BME280;22245;52.832;13.816;2023-07-20T04:10:36;100918.28;;;15.74;91.06
17764;BME280;22245;52.832;13.816;2023-07-20T04:13:58;100912.59;;;15.77;92.20
17764;BME280;22245;52.832;13.816;2023-07-20T04:17:20;100917.81;;;15.79;91.25
17764;BME280;22245;52.832;13.816;2023-07-20T04:20:43;100914.28;;;15.78;90.50
17764;BME280;22245;52.832;13.816;2023-07-20T04:24:05;100912.91;;;15.74;91.19
17764;BME280;22245;52.832;13.816;2023-07-20T04:27:27;100906.72;;;15.74;90.46
17764;BME280;22245;52.832;13.816;2023-07-20T04:30:49;100899.47;;;15.74;89.84
17764;BME280;22245;52.832;13.816;2023-07-20T04:34:12;100901.50;;;15.81;89.25
17764;BME280;22245;52.832;13.816;2023-07-20T04:37:36;100910.09;;;15.84;89.23
17764;BME280;22245;52.832;13.816;2023-07-20T04:40:57;100900.88;;;15.87;89.20
17764;BME280;22245;52.832;13.816;2023-07-20T04:44:19;100912.03;;;15.92;90.63
17764;BME280;22245;52.832;13.816;2023-07-20T04:47:41;100908.69;;;15.98;90.81
17764;BME280;22245;52.832;13.816;2023-07-20T04:51:03;100911.53;;;16.05;89.30
17764;BME280;22245;52.832;13.816;2023-07-20T04:54:27;100920.47;;;16.14;86.79
17764;BME280;22245;52.832;13.816;2023-07-20T04:57:48;100919.31;;;16.16;87.74
17764;BME280;22245;52.832;13.816;2023-07-20T05:01:10;100920.50;;;16.22;86.25
17764;BME280;22245;52.832;13.816;2023-07-20T05:04:32;100917.66;;;16.24;86.87
17764;BME280;22245;52.832;13.816;2023-07-20T05:07:59;100922.16;;;16.23;86.17
17764;BME280;22245;52.832;13.816;2023-07-20T05:23:20;100930.28;;;16.31;84.97
17764;BME280;22245;52.832;13.816;2023-07-20T05:26:43;100926.41;;;16.34;86.44
17764;BME280;22245;52.832;13.816;2023-07-20T05:30:07;100921.88;;;16.43;86.97
17764;BME280;22245;52.832;13.816;2023-07-20T05:33:29;100931.81;;;16.51;86.37
17764;BME280;22245;52.832;13.816;2023-07-20T05:36:51;100929.47;;;16.56;84.08
17764;BME280;22245;52.832;13.816;2023-07-20T05:40:15;100932.66;;;16.59;86.15
17764;BME280;22245;52.832;13.816;2023-07-20T05:43:40;100930.31;;;16.64;85.98
17764;BME280;22245;52.832;13.816;2023-07-20T05:47:02;100932.50;;;16.69;86.41
17764;BME280;22245;52.832;13.816;2023-07-20T05:50:24;100936.72;;;16.72;86.06
17764;BME280;22245;52.832;13.816;2023-07-20T05:53:46;100948.16;;;16.74;87.15
17764;BME280;22245;52.832;13.816;2023-07-20T05:57:08;100936.72;;;16.80;86.97
17764;BME280;22245;52.832;13.816;2023-07-20T06:00:30;100938.88;;;16.85;87.90
17764;BME280;22245;52.832;13.816;2023-07-20T06:03:52;100937.38;;;16.90;87.28
17764;BME280;22245;52.832;13.816;2023-07-20T06:07:14;100942.44;;;16.93;86.13
17764;BME280;22245;52.832;13.816;2023-07-20T06:10:36;100942.63;;;16.92;86.22
17764;BME280;22245;52.832;13.816;2023-07-20T06:13:59;100943.78;;;16.89;84.09
17764;BME280;22245;52.832;13.816;2023-07-20T06:17:21;100945.47;;;16.90;85.73
17764;BME280;22245;52.832;13.816;2023-07-20T06:20:48;100951.50;;;16.92;83.77
17764;BME280;22245;52.832;13.816;2023-07-20T06:24:10;100946.47;;;16.89;82.53
17764;BME280;22245;52.832;13.816;2023-07-20T06:27:31;100945.13;;;16.85;83.13
17764;BME280;22245;52.832;13.816;2023-07-20T06:31:00;100939.41;;;16.72;82.47
17764;BME280;22245;52.832;13.816;2023-07-20T06:34:21;100939.41;;;16.72;84.29
17764;BME280;22245;52.832;13.816;2023-07-20T06:37:44;100940.75;;;16.68;84.69
17764;BME280;22245;52.832;13.816;2023-07-20T06:41:05;100949.50;;;16.78;84.20
17764;BME280;22245;52.832;13.816;2023-07-20T06:44:30;100952.84;;;16.88;81.52
17764;BME280;22245;52.832;13.816;2023-07-20T06:47:53;100968.66;;;16.91;81.35
17764;BME280;22245;52.832;13.816;2023-07-20T06:51:15;100960.78;;;16.90;80.00
17764;BME280;22245;52.832;13.816;2023-07-20T06:54:38;100969.50;;;16.92;80.01
17764;BME280;22245;52.832;13.816;2023-07-20T06:58:04;100967.66;;;16.92;80.71
17764;BME280;22245;52.832;13.816;2023-07-20T07:01:26;100976.38;;;16.95;81.67
17764;BME280;22245;52.832;13.816;2023-07-20T07:04:49;100976.75;;;17.00;81.17
17764;BME280;22245;52.832;13.816;2023-07-20T07:08:20;100972.22;;;17.00;77.13
17764;BME280;22245;52.832;13.816;2023-07-20T07:11:41;100964.50;;;17.05;76.26
17764;BME280;22245;52.832;13.816;2023-07-20T07:15:04;100970.72;;;17.06;73.88
17764;BME280;22245;52.832;13.816;2023-07-20T07:18:27;100974.56;;;17.12;74.90
17764;BME280;22245;52.832;13.816;2023-07-20T07:21:50;100972.41;;;17.15;74.93
17764;BME280;22245;52.832;13.816;2023-07-20T07:25:12;100969.03;;;17.21;74.28
17764;BME280;22245;52.832;13.816;2023-07-20T07:28:38;100964.47;;;17.30;75.64
17764;BME280;22245;52.832;13.816;2023-07-20T07:31:59;100968.50;;;17.34;73.70
17764;BME280;22245;52.832;13.816;2023-07-20T07:35:24;100971.22;;;17.34;73.72
17764;BME280;22245;52.832;13.816;2023-07-20T07:38:47;100966.66;;;17.35;72.68
17764;BME280;22245;52.832;13.816;2023-07-20T07:42:29;100959.75;;;17.41;73.42
17764;BME280;22245;52.832;13.816;2023-07-20T07:45:53;100958.91;;;17.48;73.14
17764;BME280;22245;52.832;13.816;2023-07-20T07:49:15;100965.59;;;17.61;72.68
17764;BME280;22245;52.832;13.816;2023-07-20T07:52:37;100977.34;;;17.68;72.25
17764;BME280;22245;52.832;13.816;2023-07-20T07:56:00;100978.69;;;17.81;70.91
17764;BME280;22245;52.832;13.816;2023-07-20T07:59:24;100972.44;;;17.80;69.77
17764;BME280;22245;52.832;13.816;2023-07-20T08:02:46;100982.22;;;17.81;68.63
17764;BME280;22245;52.832;13.816;2023-07-20T08:06:09;100971.44;;;17.81;69.45
17764;BME280;22245;52.832;13.816;2023-07-20T08:09:32;100974.13;;;17.81;68.78
17764;BME280;22245;52.832;13.816;2023-07-20T08:12:56;100977.69;;;17.82;68.48
17764;BME280;22245;52.832;13.816;2023-07-20T08:16:18;100984.72;;;17.91;68.33
17764;BME280;22245;52.832;13.816;2023-07-20T08:19:39;100978.13;;;17.93;67.57
17764;BME280;22245;52.832;13.816;2023-07-20T08:23:02;100979.28;;;17.99;64.97
17764;BME280;22245;52.832;13.816;2023-07-20T08:26:24;100983.00;;;18.06;64.87
17764;BME280;22245;52.832;13.816;2023-07-20T08:29:48;100988.34;;;18.15;63.87
17764;BME280;22245;52.832;13.816;2023-07-20T08:33:10;100996.56;;;18.21;63.07
17764;BME280;22245;52.832;13.816;2023-07-20T08:36:32;100985.44;;;18.25;63.47
17764;BME280;22245;52.832;13.816;2023-07-20T08:39:54;100984.06;;;18.29;61.57
17764;BME280;22245;52.832;13.816;2023-07-20T08:43:17;100984.72;;;18.31;59.04
17764;BME280;22245;52.832;13.816;2023-07-20T08:46:41;100983.41;;;18.27;59.68
17764;BME280;22245;52.832;13.816;2023-07-20T08:50:05;100991.03;;;18.23;59.31
17764;BME280;22245;52.832;13.816;2023-07-20T08:53:29;100984.78;;;18.22;59.75
17764;BME280;22245;52.832;13.816;2023-07-20T08:56:54;100990.00;;;18.24;60.57
17764;BME280;22245;52.832;13.816;2023-07-20T09:00:17;100987.66;;;18.21;60.86
17764;BME280;22245;52.832;13.816;2023-07-20T09:03:42;100985.09;;;18.28;61.53
17764;BME280;22245;52.832;13.816;2023-07-20T09:07:06;100986.56;;;18.39;60.70
17764;BME280;22245;52.832;13.816;2023-07-20T09:10:28;100989.38;;;18.45;59.67
17764;BME280;22245;52.832;13.816;2023-07-20T09:14:03;100989.84;;;18.57;60.64
17764;BME280;22245;52.832;13.816;2023-07-20T09:17:25;100987.59;;;18.61;59.43
17764;BME280;22245;52.832;13.816;2023-07-20T09:20:51;100979.44;;;18.69;60.02
17764;BME280;22245;52.832;13.816;2023-07-20T09:24:13;100981.44;;;18.75;58.53
17764;BME280;22245;52.832;13.816;2023-07-20T09:27:39;100986.78;;;18.84;58.63
17764;BME280;22245;52.832;13.816;2023-07-20T09:31:15;100988.09;;;18.88;58.74
17764;BME280;22245;52.832;13.816;2023-07-20T09:34:37;100991.25;;;18.91;57.76
17764;BME280;22245;52.832;13.816;2023-07-20T09:38:01;100994.31;;;18.88;57.81
17764;BME280;22245;52.832;13.816;2023-07-20T09:41:26;100993.28;;;18.89;57.87
17764;BME280;22245;52.832;13.816;2023-07-20T09:44:51;101005.31;;;18.87;55.88
17764;BME280;22245;52.832;13.816;2023-07-20T09:48:13;100996.19;;;18.88;56.88
17764;BME280;22245;52.832;13.816;2023-07-20T09:51:37;100988.22;;;18.94;57.86
17764;BME280;22245;52.832;13.816;2023-07-20T09:55:01;100991.75;;;18.95;56.78
17764;BME280;22245;52.832;13.816;2023-07-20T09:58:25;100999.69;;;18.97;56.94
17764;BME280;22245;52.832;13.816;2023-07-20T10:01:49;101009.13;;;18.92;60.10
17764;BME280;22245;52.832;13.816;2023-07-20T10:05:14;101016.81;;;18.80;63.12
17764;BME280;22245;52.832;13.816;2023-07-20T10:08:39;101015.59;;;18.60;64.49
17764;BME280;22245;52.832;13.816;2023-07-20T10:12:07;101014.78;;;18.51;63.23
17764;BME280;22245;52.832;13.816;2023-07-20T10:15:37;101019.72;;;18.47;65.76
17764;BME280;22245;52.832;13.816;2023-07-20T10:19:05;101017.47;;;18.51;68.82
17764;BME280;22245;52.832;13.816;2023-07-20T10:22:38;101017.63;;;18.58;69.88
17764;BME280;22245;52.832;13.816;2023-07-20T10:26:02;101015.38;;;18.70;70.44
17764;BME280;22245;52.832;13.816;2023-07-20T10:29:27;101017.34;;;18.76;70.28
17764;BME280;22245;52.832;13.816;2023-07-20T10:32:51;101016.47;;;18.84;70.28
17764;BME280;22245;52.832;13.816;2023-07-20T10:36:13;101022.31;;;18.87;69.85
17764;BME280;22245;52.832;13.816;2023-07-20T10:39:35;101024.50;;;18.92;70.51
17764;BME280;22245;52.832;13.816;2023-07-20T10:43:01;101021.59;;;18.93;70.30
17764;BME280;22245;52.832;13.816;2023-07-20T10:46:44;101016.91;;;18.95;71.39
17764;BME280;22245;52.832;13.816;2023-07-20T10:50:07;101016.91;;;18.95;71.60
17764;BME280;22245;52.832;13.816;2023-07-20T10:53:29;101019.59;;;18.95;70.79
17764;BME280;22245;52.832;13.816;2023-07-20T10:56:51;101011.81;;;19.01;70.45
17764;BME280;22245;52.832;13.816;2023-07-20T11:00:14;101007.09;;;19.03;68.66
17764;BME280;22245;52.832;13.816;2023-07-20T11:03:38;100995.72;;;19.07;68.09
17764;BME280;22245;52.832;13.816;2023-07-20T11:07:00;101002.19;;;19.21;68.68
17764;BME280;22245;52.832;13.816;2023-07-20T11:10:22;101001.09;;;19.31;66.72
17764;BME280;22245;52.832;13.816;2023-07-20T11:13:54;100990.22;;;19.39;66.02
17764;BME280;22245;52.832;13.816;2023-07-20T11:17:16;100990.81;;;19.49;64.95
17764;BME280;22245;52.832;13.816;2023-07-20T11:20:44;100991.09;;;19.55;63.50
17764;BME280;22245;52.832;13.816;2023-07-20T11:24:06;101000.69;;;19.57;62.29
17764;BME280;22245;52.832;13.816;2023-07-20T11:27:29;100994.00;;;19.53;64.61
17764;BME280;22245;52.832;13.816;2023-07-20T11:30:52;101009.16;;;19.54;64.99
17764;BME280;22245;52.832;13.816;2023-07-20T11:34:16;101004.38;;;19.41;63.27
17764;BME280;22245;52.832;13.816;2023-07-20T11:37:40;101002.59;;;19.33;64.31
17764;BME280;22245;52.832;13.816;2023-07-20T11:41:02;101012.25;;;19.28;64.21
17764;BME280;22245;52.832;13.816;2023-07-20T11:44:27;101004.53;;;19.24;64.34
17764;BME280;22245;52.832;13.816;2023-07-20T11:47:49;101011.81;;;19.24;62.67
17764;BME280;22245;52.832;13.816;2023-07-20T11:51:13;101012.78;;;19.08;58.05
17764;BME280;22245;52.832;13.816;2023-07-20T11:54:38;101014.31;;;19.02;58.82
17764;BME280;22245;52.832;13.816;2023-07-20T11:58:03;101003.53;;;19.02;59.10
17764;BME280;22245;52.832;13.816;2023-07-20T12:01:26;101008.09;;;19.02;57.93
17764;BME280;22245;52.832;13.816;2023-07-20T12:04:49;101004.00;;;19.06;56.08
17764;BME280;22245;52.832;13.816;2023-07-20T12:08:12;101007.66;;;19.13;53.72
17764;BME280;22245;52.832;13.816;2023-07-20T12:11:37;101000.06;;;19.17;53.20
17764;BME280;22245;52.832;13.816;2023-07-20T12:15:13;100995.97;;;19.21;51.04
17764;BME280;22245;52.832;13.816;2023-07-20T12:18:35;100996.41;;;19.24;50.77
17764;BME280;22245;52.832;13.816;2023-07-20T12:21:58;101000.06;;;19.32;51.88
17764;BME280;22245;52.832;13.816;2023-07-20T12:25:20;100992.44;;;19.35;50.29
17764;BME280;22245;52.832;13.816;2023-07-20T12:28:43;100993.22;;;19.44;50.70
17764;BME280;22245;52.832;13.816;2023-07-20T12:32:05;100987.25;;;19.49;50.85
17764;BME280;22245;52.832;13.816;2023-07-20T12:35:27;100986.22;;;19.50;49.90
17764;BME280;22245;52.832;13.816;2023-07-20T12:38:49;100978.22;;;19.57;49.07
17764;BME280;22245;52.832;13.816;2023-07-20T12:42:10;100979.28;;;19.71;46.78
17764;BME280;22245;52.832;13.816;2023-07-20T12:45:35;100982.91;;;19.78;45.67
17764;BME280;22245;52.832;13.816;2023-07-20T12:48:57;100969.88;;;19.81;45.21
17764;BME280;22245;52.832;13.816;2023-07-20T12:52:19;100981.25;;;19.92;44.81
17764;BME280;22245;52.832;13.816;2023-07-20T12:55:41;100979.84;;;19.96;43.67
17764;BME280;22245;52.832;13.816;2023-07-20T12:59:03;100982.81;;;20.01;44.00
17764;BME280;22245;52.832;13.816;2023-07-20T13:02:27;100965.94;;;20.14;42.72
17764;BME280;22245;52.832;13.816;2023-07-20T13:05:49;100973.50;;;20.19;42.85
17764;BME280;22245;52.832;13.816;2023-07-20T13:09:14;100965.38;;;20.19;42.64
17764;BME280;22245;52.832;13.816;2023-07-20T13:12:37;100955.47;;;20.26;43.06
17764;BME280;22245;52.832;13.816;2023-07-20T13:15:59;100968.97;;;20.41;41.71
17764;BME280;22245;52.832;13.816;2023-07-20T13:19:22;100956.56;;;20.47;42.05
17764;BME280;22245;52.832;13.816;2023-07-20T13:22:44;100952.22;;;20.52;43.98
17764;BME280;22245;52.832;13.816;2023-07-20T13:26:06;100963.38;;;20.64;40.32
17764;BME280;22245;52.832;13.816;2023-07-20T13:29:28;100952.16;;;20.67;41.42
17764;BME280;22245;52.832;13.816;2023-07-20T13:32:50;100953.53;;;20.78;40.98
17764;BME280;22245;52.832;13.816;2023-07-20T13:36:15;100952.59;;;20.86;40.68
17764;BME280;22245;52.832;13.816;2023-07-20T13:39:37;100944.97;;;20.96;40.70
17764;BME280;22245;52.832;13.816;2023-07-20T13:42:59;100945.84;;;21.04;40.05
17764;BME280;22245;52.832;13.816;2023-07-20T13:46:20;100943.41;;;21.09;40.51
17764;BME280;22245;52.832;13.816;2023-07-20T13:50:02;100948.47;;;21.19;39.50
17764;BME280;22245;52.832;13.816;2023-07-20T13:53:25;100939.78;;;21.23;39.65
17764;BME280;22245;52.832;13.816;2023-07-20T13:56:51;100940.25;;;21.34;39.61
17764;BME280;22245;52.832;13.816;2023-07-20T14:00:13;100951.56;;;21.44;39.68
17764;BME280;22245;52.832;13.816;2023-07-20T14:03:36;100942.81;;;21.42;39.34
17764;BME280;22245;52.832;13.816;2023-07-20T14:06:58;100952.03;;;21.48;39.21
17764;BME280;22245;52.832;13.816;2023-07-20T14:10:21;100958.47;;;21.47;38.98
17764;BME280;22245;52.832;13.816;2023-07-20T14:13:43;100944.41;;;21.36;40.12
17764;BME280;22245;52.832;13.816;2023-07-20T14:17:08;100951.91;;;21.34;40.94
17764;BME280;22245;52.832;13.816;2023-07-20T14:20:29;100958.13;;;21.28;40.32
17764;BME280;22245;52.832;13.816;2023-07-20T14:23:51;100954.13;;;21.24;40.26
17764;BME280;22245;52.832;13.816;2023-07-20T14:27:15;100945.19;;;21.23;40.95
17764;BME280;22245;52.832;13.816;2023-07-20T14:30:37;100955.63;;;21.27;40.17
17764;BME280;22245;52.832;13.816;2023-07-20T14:33:58;100957.25;;;21.21;40.79
17764;BME280;22245;52.832;13.816;2023-07-20T14:37:19;100942.22;;;21.18;40.34
17764;BME280;22245;52.832;13.816;2023-07-20T14:40:41;100958.84;;;21.15;40.94
17764;BME280;22245;52.832;13.816;2023-07-20T14:44:05;100957.25;;;21.21;41.30
17764;BME280;22245;52.832;13.816;2023-07-20T14:47:27;100951.25;;;21.25;41.62
17764;BME280;22245;52.832;13.816;2023-07-20T14:50:52;100955.56;;;21.20;41.96
17764;BME280;22245;52.832;13.816;2023-07-20T14:54:25;100954.13;;;21.24;42.46
17764;BME280;22245;52.832;13.816;2023-07-20T14:57:47;100953.31;;;21.23;42.23
17764;BME280;22245;52.832;13.816;2023-07-20T15:01:10;100948.94;;;21.22;42.96
17764;BME280;22245;52.832;13.816;2023-07-20T15:04:33;100949.34;;;21.26;42.56
17764;BME280;22245;52.832;13.816;2023-07-20T15:07:54;100949.81;;;21.30;41.50
17764;BME280;22245;52.832;13.816;2023-07-20T15:11:16;100946.50;;;21.34;42.62
17764;BME280;22245;52.832;13.816;2023-07-20T15:14:40;100936.09;;;21.38;40.85
17764;BME280;22245;52.832;13.816;2023-07-20T15:18:03;100943.59;;;21.36;41.64
17764;BME280;22245;52.832;13.816;2023-07-20T15:21:25;100959.63;;;21.31;41.71
17764;BME280;22245;52.832;13.816;2023-07-20T15:24:50;100950.41;;;21.25;42.43
17764;BME280;22245;52.832;13.816;2023-07-20T15:28:13;100941.44;;;21.24;42.77
17764;BME280;22245;52.832;13.816;2023-07-20T15:31:35;100950.22;;;21.27;43.22
17764;BME280;22245;52.832;13.816;2023-07-20T15:35:01;100963.75;;;21.27;43.21
17764;BME280;22245;52.832;13.816;2023-07-20T15:38:24;100967.69;;;21.24;42.74
17764;BME280;22245;52.832;13.816;2023-07-20T15:41:47;100970.31;;;21.17;42.97
17764;BME280;22245;52.832;13.816;2023-07-20T15:45:34;100967.34;;;21.05;42.92
17764;BME280;22245;52.832;13.816;2023-07-20T15:48:55;100967.28;;;20.99;42.36
17764;BME280;22245;52.832;13.816;2023-07-20T15:52:18;100975.78;;;20.95;43.11
17764;BME280;22245;52.832;13.816;2023-07-20T15:55:40;100982.22;;;20.94;43.22
17764;BME280;22245;52.832;13.816;2023-07-20T15:59:02;100984.72;;;20.96;42.90
17764;BME280;22245;52.832;13.816;2023-07-20T16:02:23;100989.47;;;20.87;42.24
17764;BME280;22245;52.832;13.816;2023-07-20T16:05:45;100984.91;;;20.73;42.65
17764;BME280;22245;52.832;13.816;2023-07-20T16:09:09;100977.94;;;20.63;42.94
17764;BME280;22245;52.832;13.816;2023-07-20T16:12:31;100976.81;;;20.58;43.06
17764;BME280;22245;52.832;13.816;2023-07-20T16:15:53;100977.41;;;20.53;43.48
17764;BME280;22245;52.832;13.816;2023-07-20T16:19:15;100974.06;;;20.51;43.54
17764;BME280;22245;52.832;13.816;2023-07-20T16:22:36;100970.13;;;20.53;43.15
17764;BME280;22245;52.832;13.816;2023-07-20T16:25:59;100973.47;;;20.56;42.50
17764;BME280;22245;52.832;13.816;2023-07-20T16:29:20;100970.22;;;20.82;41.74
17764;BME280;22245;52.832;13.816;2023-07-20T16:32:44;100971.75;;;21.13;40.87
17764;BME280;22245;52.832;13.816;2023-07-20T16:36:11;100977.44;;;21.47;40.19
17764;BME280;22245;52.832;13.816;2023-07-20T16:39:33;100976.81;;;21.73;39.14
17764;BME280;22245;52.832;13.816;2023-07-20T16:43:08;100968.56;;;21.95;39.05
17764;BME280;22245;52.832;13.816;2023-07-20T16:46:30;100974.50;;;22.19;39.14
17764;BME280;22245;52.832;13.816;2023-07-20T16:49:56;100974.91;;;22.16;39.38
17764;BME280;22245;52.832;13.816;2023-07-20T16:57:54;100974.63;;;22.46;39.22
17764;BME280;22245;52.832;13.816;2023-07-20T17:01:17;100978.56;;;22.43;39.44
17764;BME280;22245;52.832;13.816;2023-07-20T17:04:39;100977.56;;;22.51;39.53
17764;BME280;22245;52.832;13.816;2023-07-20T17:08:00;100981.16;;;22.72;40.16
17764;BME280;22245;52.832;13.816;2023-07-20T17:11:22;100993.50;;;22.81;40.36
17764;BME280;22245;52.832;13.816;2023-07-20T17:14:44;101003.03;;;22.50;39.69
17764;BME280;22245;52.832;13.816;2023-07-20T17:18:09;100994.38;;;22.33;39.44
17764;BME280;22245;52.832;13.816;2023-07-20T17:21:31;101007.97;;;21.91;39.51
17764;BME280;22245;52.832;13.816;2023-07-20T17:24:53;101000.97;;;21.46;40.52
17764;BME280;22245;52.832;13.816;2023-07-20T17:28:17;101006.63;;;21.23;41.22
17764;BME280;22245;52.832;13.816;2023-07-20T17:31:42;101002.84;;;20.95;41.58
17764;BME280;22245;52.832;13.816;2023-07-20T17:35:06;100999.72;;;20.77;41.85
17764;BME280;22245;52.832;13.816;2023-07-20T17:38:30;101001.91;;;20.66;42.38
17764;BME280;22245;52.832;13.816;2023-07-20T17:41:55;101003.81;;;20.88;42.09
17764;BME280;22245;52.832;13.816;2023-07-20T17:45:16;101002.06;;;21.02;41.70